Time;durP1;ratioP1;P1;durP2;ratioP2;P2;SDS_P1;SDS_P2;PMS_P1;PMS_P2;Temp;Humidity;BMP_temperature;BMP_pressure;BME280_temperature;BME280_humidity;BME280_pressure;Samples;Min_cycle;Max_cycle;Signal;HPM_P1;HPM_P2
2023/06/06 00:04:16;;;;;;;;;;;;;;;14.48;100.00;95642.69;10517537;28;1902;-71
2023/06/06 00:09:19;;;;;;;;;;;;;;;14.36;100.00;95645.06;10511699;28;1956;-71
2023/06/06 00:14:22;;;;;;;;;;;;;;;14.17;100.00;95633.53;10514814;28;1887;-70
2023/06/06 00:19:25;;;;;;;;;;;;;;;14.00;100.00;95637.66;10511575;28;1981;-69
2023/06/06 00:24:28;;;;;;;;;;;;;;;14.02;100.00;95632.75;10496840;28;1918;-71
2023/06/06 00:29:30;;;;;;;;;;;;;;;13.98;100.00;95631.72;10508954;28;1860;-71
2023/06/06 00:34:32;;;;;;;;;;;;;;;14.14;100.00;95632.25;10511444;28;1908;-71
2023/06/06 00:39:35;;;;;;;;;;;;;;;14.20;100.00;95635.66;10507703;28;1890;-71
2023/06/06 00:44:38;;;;;;;;;;;;;;;14.29;100.00;95621.13;10505093;28;4505;-71
2023/06/06 00:49:41;;;;;;;;;;;;;;;14.18;100.00;95622.44;10502865;28;1906;-71
2023/06/06 00:54:44;;;;;;;;;;;;;;;14.23;100.00;95626.94;10490076;28;1974;-69
2023/06/06 00:59:47;;;;;;;;;;;;;;;14.38;100.00;95626.66;10506661;28;1981;-71
2023/06/06 01:04:50;;;;;;;;;;;;;;;14.41;100.00;95622.53;10506172;28;2152;-70
2023/06/06 01:09:53;;;;;;;;;;;;;;;14.44;100.00;95621.91;10509422;28;1942;-69
2023/06/06 01:14:55;;;;;;;;;;;;;;;14.36;100.00;95620.72;10507486;28;1988;-70
2023/06/06 01:19:59;;;;;;;;;;;;;;;14.28;100.00;95624.16;10511633;28;2074;-69
2023/06/06 01:25:02;;;;;;;;;;;;;;;14.40;100.00;95623.66;10509511;28;2059;-71
2023/06/06 01:30:04;;;;;;;;;;;;;;;14.60;100.00;95624.06;10504064;28;2113;-71
2023/06/06 01:35:07;;;;;;;;;;;;;;;14.77;100.00;95633.47;10509301;28;2028;-71
2023/06/06 01:40:09;;;;;;;;;;;;;;;14.85;100.00;95624.63;10509716;28;1968;-70
2023/06/06 01:45:11;;;;;;;;;;;;;;;14.66;100.00;95626.66;10502000;28;4488;-70
2023/06/06 01:50:14;;;;;;;;;;;;;;;14.56;100.00;95623.03;10508311;28;2116;-72
2023/06/06 01:55:16;;;;;;;;;;;;;;;14.50;100.00;95629.66;10506727;28;1942;-69
2023/06/06 02:00:20;;;;;;;;;;;;;;;14.62;100.00;95631.06;10507861;28;2259;-70
2023/06/06 02:05:22;;;;;;;;;;;;;;;14.46;100.00;95639.50;10502629;28;2021;-69
2023/06/06 02:10:25;;;;;;;;;;;;;;;14.46;100.00;95641.38;10507395;28;1973;-72
2023/06/06 02:15:29;;;;;;;;;;;;;;;14.49;100.00;95633.47;10506609;28;1968;-71
2023/06/06 02:20:31;;;;;;;;;;;;;;;14.44;100.00;95633.56;10504758;28;2009;-72
2023/06/06 02:25:37;;;;;;;;;;;;;;;14.41;100.00;95639.56;10498035;28;1957;-72
2023/06/06 02:30:39;;;;;;;;;;;;;;;14.17;100.00;95641.66;10503447;28;2016;-71
2023/06/06 02:35:42;;;;;;;;;;;;;;;14.27;100.00;95642.28;10499718;28;2442;-71
2023/06/06 02:40:44;;;;;;;;;;;;;;;14.03;100.00;95637.03;10503790;28;2063;-72
2023/06/06 02:45:47;;;;;;;;;;;;;;;14.19;100.00;95631.38;10506128;28;4374;-73
2023/06/06 02:50:49;;;;;;;;;;;;;;;14.17;100.00;95638.94;10504515;28;2067;-71
2023/06/06 02:55:52;;;;;;;;;;;;;;;14.05;100.00;95634.81;10505510;28;1960;-69
2023/06/06 03:00:54;;;;;;;;;;;;;;;13.82;100.00;95635.81;10508739;28;2052;-68
2023/06/06 03:05:57;;;;;;;;;;;;;;;13.95;100.00;95640.44;10505011;28;2042;-71
2023/06/06 03:11:00;;;;;;;;;;;;;;;13.87;100.00;95643.00;10502050;28;2071;-70
2023/06/06 03:16:02;;;;;;;;;;;;;;;13.92;100.00;95643.72;10504839;28;1926;-70
2023/06/06 03:21:05;;;;;;;;;;;;;;;13.95;100.00;95645.03;10500521;28;2103;-71
2023/06/06 03:26:08;;;;;;;;;;;;;;;13.93;100.00;95642.66;10501083;28;1978;-71
2023/06/06 03:31:11;;;;;;;;;;;;;;;14.00;100.00;95642.25;10504435;28;2354;-70
2023/06/06 03:36:13;;;;;;;;;;;;;;;14.11;100.00;95637.44;10505213;28;1954;-71
2023/06/06 03:41:16;;;;;;;;;;;;;;;14.13;100.00;95646.06;10503243;28;1994;-71
2023/06/06 03:46:19;;;;;;;;;;;;;;;14.14;100.00;95645.78;10499714;28;4366;-71
2023/06/06 03:51:22;;;;;;;;;;;;;;;14.12;100.00;95639.03;10508292;28;1851;-68
2023/06/06 03:56:24;;;;;;;;;;;;;;;14.11;100.00;95634.75;10508337;28;1970;-70
2023/06/06 04:01:31;;;;;;;;;;;;;;;14.13;100.00;95635.25;10502577;28;1918;-70
2023/06/06 04:06:33;;;;;;;;;;;;;;;13.96;100.00;95644.75;10503745;28;1976;-71
2023/06/06 04:11:36;;;;;;;;;;;;;;;14.09;100.00;95640.44;10505185;28;1871;-70
2023/06/06 04:16:40;;;;;;;;;;;;;;;14.09;100.00;95650.47;10513415;28;1827;-69
2023/06/06 04:21:42;;;;;;;;;;;;;;;14.03;100.00;95647.84;10506987;28;1860;-71
2023/06/06 04:26:46;;;;;;;;;;;;;;;14.16;100.00;95650.88;10508744;28;1981;-70
2023/06/06 04:31:52;;;;;;;;;;;;;;;14.25;100.00;95649.88;10502046;28;1892;-70
2023/06/06 04:36:56;;;;;;;;;;;;;;;14.19;100.00;95644.88;10509523;28;2143;-71
2023/06/06 04:41:59;;;;;;;;;;;;;;;14.06;100.00;95647.28;10509727;28;1945;-70
2023/06/06 04:47:03;;;;;;;;;;;;;;;13.79;100.00;95663.41;10507981;28;2162;-72
2023/06/06 04:52:05;;;;;;;;;;;;;;;13.65;100.00;95662.56;10511231;28;1974;-72
2023/06/06 04:57:08;;;;;;;;;;;;;;;13.65;100.00;95665.28;10512626;28;1910;-71
2023/06/06 05:02:11;;;;;;;;;;;;;;;13.55;100.00;95668.13;10512980;28;1906;-71
2023/06/06 05:07:13;;;;;;;;;;;;;;;13.45;100.00;95686.09;10511152;28;1978;-69
2023/06/06 05:12:16;;;;;;;;;;;;;;;13.72;100.00;95685.41;10494566;28;1918;-71
2023/06/06 05:17:20;;;;;;;;;;;;;;;13.97;100.00;95681.47;10509676;28;1876;-72
2023/06/06 05:22:23;;;;;;;;;;;;;;;14.34;100.00;95685.13;10500975;28;2347;-72
2023/06/06 05:27:26;;;;;;;;;;;;;;;14.40;100.00;95680.44;10512978;28;1895;-72
2023/06/06 05:32:28;;;;;;;;;;;;;;;14.23;100.00;95684.50;10511175;28;1894;-71
2023/06/06 05:37:30;;;;;;;;;;;;;;;14.06;100.00;95689.72;10512136;28;1922;-71
2023/06/06 05:42:33;;;;;;;;;;;;;;;14.13;100.00;95695.53;10512296;28;1888;-77
2023/06/06 05:47:36;;;;;;;;;;;;;;;14.18;100.00;95692.72;10503469;28;4770;-72
2023/06/06 05:52:38;;;;;;;;;;;;;;;14.46;100.00;95696.28;10509440;28;2177;-72
2023/06/06 05:57:40;;;;;;;;;;;;;;;14.12;100.00;95693.09;10509133;28;1911;-71
2023/06/06 06:02:43;;;;;;;;;;;;;;;14.72;100.00;95682.28;10504960;28;1886;-75
2023/06/06 06:07:47;;;;;;;;;;;;;;;15.08;100.00;95687.75;10506434;28;1976;-74
2023/06/06 06:12:50;;;;;;;;;;;;;;;15.48;100.00;95685.22;10513207;28;1923;-73
2023/06/06 06:17:52;;;;;;;;;;;;;;;15.41;100.00;95677.53;10517038;28;1938;-73
2023/06/06 06:22:54;;;;;;;;;;;;;;;15.39;100.00;95682.41;10512101;28;2438;-73
2023/06/06 06:27:57;;;;;;;;;;;;;;;15.30;100.00;95681.56;10517301;28;1959;-73
2023/06/06 06:33:00;;;;;;;;;;;;;;;15.38;100.00;95689.75;10510887;28;2000;-74
2023/06/06 06:38:03;;;;;;;;;;;;;;;15.56;100.00;95696.13;10511150;28;1957;-73
2023/06/06 06:43:06;;;;;;;;;;;;;;;15.42;100.00;95698.06;10507619;28;4632;-73
2023/06/06 06:48:09;;;;;;;;;;;;;;;15.62;100.00;95700.34;10512835;28;1918;-74
2023/06/06 06:53:13;;;;;;;;;;;;;;;15.82;100.00;95706.38;10510023;28;1864;-74
2023/06/06 06:58:25;;;;;;;;;;;;;;;15.86;100.00;95712.78;10509036;28;1923;-74
2023/06/06 07:03:28;;;;;;;;;;;;;;;15.98;100.00;95710.31;10505926;28;1924;-73
2023/06/06 07:08:31;;;;;;;;;;;;;;;15.96;100.00;95712.53;10507708;28;1957;-74
2023/06/06 07:13:34;;;;;;;;;;;;;;;16.09;100.00;95711.66;10510050;28;1910;-73
2023/06/06 07:18:36;;;;;;;;;;;;;;;16.06;100.00;95720.41;10506988;28;2305;-71
2023/06/06 07:23:39;;;;;;;;;;;;;;;16.01;100.00;95717.81;10504165;28;1983;-72
2023/06/06 07:28:42;;;;;;;;;;;;;;;16.03;100.00;95712.09;10507570;28;1895;-71
2023/06/06 07:33:45;;;;;;;;;;;;;;;16.02;100.00;95714.00;10505975;28;1946;-74
2023/06/06 07:38:47;;;;;;;;;;;;;;;16.20;100.00;95721.13;10504527;28;1890;-73
2023/06/06 07:43:50;;;;;;;;;;;;;;;16.30;100.00;95720.09;10506542;28;4562;-73
2023/06/06 07:48:53;;;;;;;;;;;;;;;16.22;100.00;95715.38;10515446;28;1986;-73
2023/06/06 07:53:55;;;;;;;;;;;;;;;16.26;100.00;95710.16;10508268;28;1943;-74
2023/06/06 07:58:59;;;;;;;;;;;;;;;16.03;100.00;95710.19;10512829;28;1871;-75
2023/06/06 08:04:01;;;;;;;;;;;;;;;16.00;100.00;95705.38;10510602;28;1898;-74
2023/06/06 08:09:06;;;;;;;;;;;;;;;16.12;100.00;95711.03;10513533;28;1961;-73
2023/06/06 08:14:08;;;;;;;;;;;;;;;16.18;100.00;95715.22;10511889;28;2287;-72
2023/06/06 08:19:11;;;;;;;;;;;;;;;16.31;100.00;95707.31;10517371;28;1883;-73
2023/06/06 08:24:13;;;;;;;;;;;;;;;16.09;100.00;95711.66;10518506;28;1524;-73
2023/06/06 08:29:16;;;;;;;;;;;;;;;16.55;100.00;95718.63;10517406;28;1979;-73
2023/06/06 08:34:19;;;;;;;;;;;;;;;17.19;100.00;95710.84;10518629;28;1825;-74
2023/06/06 08:39:21;;;;;;;;;;;;;;;17.26;100.00;95705.75;10516033;28;1876;-75
2023/06/06 08:44:24;;;;;;;;;;;;;;;17.82;100.00;95701.31;10515045;28;4501;-75
2023/06/06 08:49:27;;;;;;;;;;;;;;;17.64;100.00;95699.69;10509729;28;1895;-74
2023/06/06 08:54:29;;;;;;;;;;;;;;;17.55;100.00;95701.59;10513067;28;2060;-74
2023/06/06 08:59:31;;;;;;;;;;;;;;;17.32;100.00;95708.31;10515108;28;1890;-75
2023/06/06 09:04:34;;;;;;;;;;;;;;;17.36;100.00;95701.09;10494116;28;2101;-72
2023/06/06 09:09:36;;;;;;;;;;;;;;;17.53;100.00;95703.84;10510320;28;2411;-74
2023/06/06 09:14:39;;;;;;;;;;;;;;;17.80;100.00;95706.25;10511443;28;2112;-73
2023/06/06 09:19:41;;;;;;;;;;;;;;;18.33;100.00;95715.97;10514716;28;1886;-72
2023/06/06 09:24:44;;;;;;;;;;;;;;;18.17;100.00;95705.91;10507300;28;1855;-72
2023/06/06 09:29:47;;;;;;;;;;;;;;;19.15;100.00;95713.88;10510819;28;1952;-72
2023/06/06 09:34:49;;;;;;;;;;;;;;;20.02;100.00;95691.41;10515789;28;1932;-72
2023/06/06 09:39:52;;;;;;;;;;;;;;;19.43;100.00;95695.09;10507216;28;1899;-72
2023/06/06 09:44:54;;;;;;;;;;;;;;;19.40;100.00;95686.75;10504132;28;4524;-73
2023/06/06 09:49:56;;;;;;;;;;;;;;;20.69;100.00;95686.72;10510421;28;1917;-72
2023/06/06 09:54:59;;;;;;;;;;;;;;;21.27;100.00;95690.13;10512580;28;1883;-72
2023/06/06 10:00:07;;;;;;;;;;;;;;;21.59;100.00;95686.44;10496836;28;1797;-72
2023/06/06 10:05:10;;;;;;;;;;;;;;;21.02;100.00;95679.19;10511087;28;2431;-72
2023/06/06 10:10:14;;;;;;;;;;;;;;;21.35;100.00;95683.75;10517442;28;2197;-73
2023/06/06 10:15:17;;;;;;;;;;;;;;;20.90;100.00;95687.41;10508912;28;1925;-72
2023/06/06 10:20:20;;;;;;;;;;;;;;;21.34;100.00;95687.63;10508784;28;1902;-74
2023/06/06 10:25:23;;;;;;;;;;;;;;;21.40;100.00;95678.03;10507581;28;1922;-72
2023/06/06 10:30:26;;;;;;;;;;;;;;;21.53;100.00;95673.34;10508469;28;1921;-73
2023/06/06 10:35:28;;;;;;;;;;;;;;;21.93;100.00;95680.72;10506913;28;1859;-73
2023/06/06 10:40:30;;;;;;;;;;;;;;;21.87;100.00;95680.16;10500582;28;1879;-72
2023/06/06 10:45:33;;;;;;;;;;;;;;;23.82;84.58;95674.44;10503795;28;4438;-72
2023/06/06 10:50:35;;;;;;;;;;;;;;;22.56;89.10;95678.94;10502962;28;1993;-72
2023/06/06 10:55:38;;;;;;;;;;;;;;;22.71;85.45;95668.31;10509315;28;1939;-74
2023/06/06 11:00:42;;;;;;;;;;;;;;;21.49;92.29;95662.28;10505352;28;2773;-75
2023/06/06 11:05:45;;;;;;;;;;;;;;;22.12;84.20;95667.22;10509115;28;2165;-74
2023/06/06 11:10:47;;;;;;;;;;;;;;;23.18;77.53;95655.41;10508314;28;1960;-72
2023/06/06 11:15:50;;;;;;;;;;;;;;;23.98;71.06;95648.50;10504682;28;1892;-75
2023/06/06 11:20:53;;;;;;;;;;;;;;;24.59;67.67;95649.63;10500982;28;1903;-73
2023/06/06 11:25:56;;;;;;;;;;;;;;;23.07;77.01;95654.34;10505715;28;2031;-75
2023/06/06 11:30:59;;;;;;;;;;;;;;;23.31;74.03;95652.53;10508037;28;1886;-73
2023/06/06 11:36:08;;;;;;;;;;;;;;;23.03;79.55;95648.00;10506867;28;1878;-74
2023/06/06 11:41:11;;;;;;;;;;;;;;;23.07;78.76;95640.66;10513139;28;1888;-75
2023/06/06 11:46:13;;;;;;;;;;;;;;;23.09;80.94;95643.03;10510829;28;4461;-74
2023/06/06 11:51:16;;;;;;;;;;;;;;;22.52;84.68;95642.47;10510052;28;1939;-74
2023/06/06 11:56:19;;;;;;;;;;;;;;;22.77;79.70;95639.50;10506306;28;2401;-71
2023/06/06 12:01:21;;;;;;;;;;;;;;;21.38;86.27;95644.00;10508703;28;1987;-75
2023/06/06 12:06:24;;;;;;;;;;;;;;;21.15;90.01;95630.00;10508158;28;1975;-75
2023/06/06 12:11:31;;;;;;;;;;;;;;;22.13;79.52;95631.25;10508196;28;2076;-75
2023/06/06 12:16:33;;;;;;;;;;;;;;;22.62;74.05;95630.94;10505946;28;1883;-75
2023/06/06 12:21:36;;;;;;;;;;;;;;;23.44;63.24;95621.09;10507437;28;1860;-75
2023/06/06 12:26:41;;;;;;;;;;;;;;;24.04;60.40;95616.03;10509456;28;1890;-74
2023/06/06 12:31:45;;;;;;;;;;;;;;;23.51;64.33;95607.53;10508257;28;1879;-74
2023/06/06 12:36:48;;;;;;;;;;;;;;;22.73;67.42;95601.06;10513224;28;1884;-73
2023/06/06 12:41:51;;;;;;;;;;;;;;;22.85;64.66;95606.44;10517417;28;1848;-74
2023/06/06 12:46:53;;;;;;;;;;;;;;;23.18;63.76;95597.03;10510480;28;4449;-75
2023/06/06 12:51:58;;;;;;;;;;;;;;;23.97;58.95;95599.44;10511666;28;2059;-74
2023/06/06 12:57:00;;;;;;;;;;;;;;;23.73;61.44;95606.84;10508342;28;2355;-73
2023/06/06 13:02:06;;;;;;;;;;;;;;;24.02;62.72;95623.06;10510019;28;1970;-74
2023/06/06 13:07:08;;;;;;;;;;;;;;;23.53;63.39;95607.94;10506179;28;1993;-76
2023/06/06 13:12:14;;;;;;;;;;;;;;;22.95;67.96;95612.56;10505261;28;1979;-74
2023/06/06 13:17:17;;;;;;;;;;;;;;;22.97;64.57;95611.06;10508278;28;1915;-75
2023/06/06 13:22:20;;;;;;;;;;;;;;;22.74;68.11;95607.34;10510713;28;1946;-77
2023/06/06 13:27:22;;;;;;;;;;;;;;;23.58;66.67;95606.88;10507281;28;1886;-76
2023/06/06 13:32:25;;;;;;;;;;;;;;;23.82;61.84;95616.78;10509649;28;1956;-76
2023/06/06 13:37:28;;;;;;;;;;;;;;;23.24;62.83;95605.78;10507425;28;1918;-74
2023/06/06 13:42:30;;;;;;;;;;;;;;;23.41;63.76;95597.09;10504260;28;2050;-76
2023/06/06 13:47:33;;;;;;;;;;;;;;;23.65;59.61;95613.31;10506352;28;4576;-76
2023/06/06 13:52:37;;;;;;;;;;;;;;;23.62;57.94;95603.09;10512213;28;2287;-76
2023/06/06 13:57:41;;;;;;;;;;;;;;;23.77;57.83;95606.09;10507658;28;1852;-73
2023/06/06 14:02:44;;;;;;;;;;;;;;;22.73;65.00;95605.75;10508894;28;2000;-76
2023/06/06 14:07:46;;;;;;;;;;;;;;;23.32;64.43;95602.81;10511070;28;1918;-75
2023/06/06 14:12:49;;;;;;;;;;;;;;;23.41;64.62;95597.94;10510786;28;1875;-76
2023/06/06 14:17:52;;;;;;;;;;;;;;;22.49;69.33;95610.28;10505857;28;1920;-77
2023/06/06 14:22:58;;;;;;;;;;;;;;;23.11;62.24;95583.16;10510189;28;1878;-76
2023/06/06 14:28:00;;;;;;;;;;;;;;;24.07;57.68;95596.09;10507449;28;1925;-74
2023/06/06 14:33:03;;;;;;;;;;;;;;;23.92;62.61;95595.03;10499482;28;1951;-74
2023/06/06 14:38:08;;;;;;;;;;;;;;;23.07;70.66;95602.28;10506401;28;1863;-74
2023/06/06 14:43:11;;;;;;;;;;;;;;;23.60;68.31;95594.41;10507929;28;1888;-74
2023/06/06 14:48:14;;;;;;;;;;;;;;;23.08;70.09;95595.63;10507453;28;1910;-73
2023/06/06 14:53:17;;;;;;;;;;;;;;;23.16;66.31;95589.16;10510391;28;1843;-71
2023/06/06 14:58:20;;;;;;;;;;;;;;;23.37;59.28;95593.50;10512623;28;2194;-72
2023/06/06 15:03:22;;;;;;;;;;;;;;;23.78;61.25;95585.72;10504685;28;1994;-70
2023/06/06 15:08:25;;;;;;;;;;;;;;;22.90;65.28;95595.25;10508324;28;2163;-72
2023/06/06 15:13:28;;;;;;;;;;;;;;;22.96;67.62;95586.72;10505535;28;1848;-72
2023/06/06 15:18:30;;;;;;;;;;;;;;;23.40;62.88;95584.56;10507806;28;1943;-71
2023/06/06 15:23:33;;;;;;;;;;;;;;;23.10;66.78;95581.59;10505922;28;1910;-72
2023/06/06 15:28:35;;;;;;;;;;;;;;;23.16;66.85;95596.59;10508293;28;1903;-71
2023/06/06 15:33:38;;;;;;;;;;;;;;;22.46;70.73;95585.53;10511037;28;1832;-72
2023/06/06 15:38:41;;;;;;;;;;;;;;;22.40;73.06;95582.28;10510969;28;1875;-71
2023/06/06 15:43:43;;;;;;;;;;;;;;;22.81;69.77;95585.59;10508168;28;2313;-71
2023/06/06 15:48:46;;;;;;;;;;;;;;;22.74;67.08;95579.94;10507291;28;1910;-71
2023/06/06 15:53:49;;;;;;;;;;;;;;;22.50;72.60;95579.00;10511831;28;1971;-72
2023/06/06 15:58:52;;;;;;;;;;;;;;;22.56;73.33;95574.03;10510441;28;2119;-72
2023/06/06 16:03:54;;;;;;;;;;;;;;;22.35;71.20;95579.81;10508467;28;1963;-72
2023/06/06 16:08:59;;;;;;;;;;;;;;;22.24;75.35;95573.25;10515117;28;1918;-72
2023/06/06 16:14:02;;;;;;;;;;;;;;;22.00;78.74;95576.91;10511141;28;1925;-71
2023/06/06 16:19:05;;;;;;;;;;;;;;;21.59;83.93;95582.50;10512674;28;2068;-70
2023/06/06 16:24:08;;;;;;;;;;;;;;;21.44;85.55;95588.72;10509838;28;1914;-70
2023/06/06 16:29:11;;;;;;;;;;;;;;;21.03;89.79;95596.06;10511810;28;1992;-72
2023/06/06 16:34:13;;;;;;;;;;;;;;;21.08;90.11;95597.78;10508120;28;1990;-70
2023/06/06 16:39:16;;;;;;;;;;;;;;;20.84;88.59;95604.06;10520225;28;2382;-71
2023/06/06 16:44:19;;;;;;;;;;;;;;;20.64;90.14;95610.47;10504873;28;1859;-70
2023/06/06 16:49:22;;;;;;;;;;;;;;;20.53;93.50;95604.66;10503702;28;2074;-70
2023/06/06 16:54:24;;;;;;;;;;;;;;;20.71;95.34;95602.50;10512620;28;1922;-72
2023/06/06 16:59:29;;;;;;;;;;;;;;;20.61;94.42;95602.94;10510274;28;1874;-71
2023/06/06 17:04:32;;;;;;;;;;;;;;;20.69;95.04;95608.31;10506047;28;1868;-75
2023/06/06 17:09:34;;;;;;;;;;;;;;;20.31;98.69;95614.06;10506566;28;2049;-74
2023/06/06 17:14:37;;;;;;;;;;;;;;;20.14;98.24;95619.72;10509173;28;2119;-74
2023/06/06 17:19:39;;;;;;;;;;;;;;;20.11;100.00;95606.75;10519334;28;1865;-73
2023/06/06 17:24:42;;;;;;;;;;;;;;;20.12;100.00;95611.88;10506158;28;1836;-74
2023/06/06 17:29:44;;;;;;;;;;;;;;;19.99;100.00;95612.97;10505714;28;2017;-74
2023/06/06 17:34:47;;;;;;;;;;;;;;;19.91;100.00;95609.22;10512070;28;2609;-74
2023/06/06 17:39:49;;;;;;;;;;;;;;;19.96;100.00;95603.53;10509423;28;1902;-74
2023/06/06 17:44:54;;;;;;;;;;;;;;;19.97;100.00;95618.75;10507771;28;4507;-75
2023/06/06 17:49:59;;;;;;;;;;;;;;;19.84;100.00;95613.59;10506574;28;2468;-74
2023/06/06 17:55:03;;;;;;;;;;;;;;;19.74;100.00;95630.41;10511517;28;1949;-74
2023/06/06 18:00:07;;;;;;;;;;;;;;;19.44;100.00;95623.09;10509405;28;1880;-72
2023/06/06 18:05:10;;;;;;;;;;;;;;;19.43;100.00;95621.50;10507308;28;1916;-74
2023/06/06 18:10:15;;;;;;;;;;;;;;;19.35;100.00;95618.84;10510771;28;1985;-73
2023/06/06 18:15:17;;;;;;;;;;;;;;;19.23;100.00;95633.19;10514224;28;1939;-74
2023/06/06 18:20:20;;;;;;;;;;;;;;;19.12;100.00;95627.34;10513209;28;1827;-72
2023/06/06 18:25:24;;;;;;;;;;;;;;;19.03;100.00;95628.53;10508623;28;1851;-73
2023/06/06 18:30:27;;;;;;;;;;;;;;;18.95;100.00;95632.09;10503710;28;2258;-74
2023/06/06 18:35:29;;;;;;;;;;;;;;;18.78;100.00;95638.47;10505292;28;1871;-72
2023/06/06 18:40:32;;;;;;;;;;;;;;;18.69;100.00;95638.50;10506695;28;1943;-74
2023/06/06 18:45:35;;;;;;;;;;;;;;;18.53;100.00;95634.72;10500138;28;4466;-76
2023/06/06 18:50:37;;;;;;;;;;;;;;;18.39;100.00;95642.31;10501414;28;1937;-74
2023/06/06 18:55:40;;;;;;;;;;;;;;;18.18;100.00;95643.00;10502773;28;1792;-74
2023/06/06 19:00:43;;;;;;;;;;;;;;;17.99;100.00;95656.19;10503732;28;1975;-74
2023/06/06 19:05:45;;;;;;;;;;;;;;;17.89;100.00;95661.97;10504472;28;1874;-75
2023/06/06 19:10:48;;;;;;;;;;;;;;;17.72;100.00;95660.06;10509656;28;1906;-75
2023/06/06 19:15:51;;;;;;;;;;;;;;;17.57;100.00;95669.50;10501326;28;1895;-74
2023/06/06 19:20:54;;;;;;;;;;;;;;;17.37;100.00;95667.38;10503865;28;1839;-75
2023/06/06 19:25:56;;;;;;;;;;;;;;;17.25;100.00;95676.19;10491756;28;1949;-74
2023/06/06 19:30:59;;;;;;;;;;;;;;;17.08;100.00;95687.81;10506933;28;2536;-76
2023/06/06 19:36:02;;;;;;;;;;;;;;;17.00;100.00;95685.91;10505848;28;1921;-75
2023/06/06 19:41:05;;;;;;;;;;;;;;;16.85;100.00;95689.03;10505545;28;1918;-74
2023/06/06 19:46:09;;;;;;;;;;;;;;;16.82;100.00;95700.53;10514920;28;4466;-73
2023/06/06 19:51:12;;;;;;;;;;;;;;;16.72;100.00;95704.31;10512453;28;1967;-72
2023/06/06 19:56:14;;;;;;;;;;;;;;;16.73;100.00;95697.78;10513752;28;1835;-72
2023/06/06 20:01:17;;;;;;;;;;;;;;;16.65;100.00;95704.75;10513056;28;1887;-73
2023/06/06 20:06:19;;;;;;;;;;;;;;;16.68;100.00;95714.19;10507223;28;1848;-73
2023/06/06 20:11:21;;;;;;;;;;;;;;;16.51;100.00;95723.06;10513904;28;1997;-73
2023/06/06 20:16:24;;;;;;;;;;;;;;;16.41;100.00;95724.13;10515619;28;1491;-72
2023/06/06 20:21:26;;;;;;;;;;;;;;;16.33;100.00;95724.88;10514985;28;1554;-73
2023/06/06 20:26:29;;;;;;;;;;;;;;;16.27;100.00;95731.53;10507690;28;2396;-74
2023/06/06 20:31:31;;;;;;;;;;;;;;;16.21;100.00;95736.28;10507775;28;1966;-72
2023/06/06 20:36:33;;;;;;;;;;;;;;;16.16;100.00;95739.16;10513261;28;1841;-73
2023/06/06 20:41:36;;;;;;;;;;;;;;;16.09;100.00;95732.53;10510298;28;1799;-73
2023/06/06 20:46:38;;;;;;;;;;;;;;;16.04;100.00;95733.50;10512286;28;4453;-73
2023/06/06 20:51:41;;;;;;;;;;;;;;;15.93;100.00;95732.13;10509771;28;1906;-73
2023/06/06 20:56:43;;;;;;;;;;;;;;;15.86;100.00;95734.47;10510344;28;2048;-75
2023/06/06 21:01:46;;;;;;;;;;;;;;;15.82;100.00;95734.28;10513787;28;1938;-75
2023/06/06 21:06:48;;;;;;;;;;;;;;;15.77;100.00;95739.00;10508913;28;1895;-72
2023/06/06 21:11:53;;;;;;;;;;;;;;;15.65;100.00;95739.59;10513550;28;1998;-73
2023/06/06 21:16:55;;;;;;;;;;;;;;;15.56;100.00;95731.34;10507328;28;1926;-74
2023/06/06 21:21:58;;;;;;;;;;;;;;;15.48;100.00;95739.41;10507592;28;2708;-74
2023/06/06 21:27:00;;;;;;;;;;;;;;;15.34;100.00;95736.72;10507449;28;1835;-74
2023/06/06 21:32:03;;;;;;;;;;;;;;;15.41;100.00;95729.78;10511239;28;1954;-72
2023/06/06 21:37:05;;;;;;;;;;;;;;;15.23;100.00;95733.44;10503419;28;2150;-72
2023/06/06 21:42:07;;;;;;;;;;;;;;;15.11;100.00;95731.25;10505158;28;1918;-74
2023/06/06 21:47:10;;;;;;;;;;;;;;;15.11;100.00;95752.91;10501223;28;4494;-73
2023/06/06 21:52:12;;;;;;;;;;;;;;;14.99;100.00;95744.47;10508695;28;2158;-75
2023/06/06 21:57:15;;;;;;;;;;;;;;;15.00;100.00;95746.06;10520658;28;1881;-71
2023/06/06 22:02:17;;;;;;;;;;;;;;;14.86;100.00;95737.16;10505710;28;2063;-74
2023/06/06 22:07:20;;;;;;;;;;;;;;;14.75;100.00;95749.28;10507381;28;1925;-74
2023/06/06 22:12:22;;;;;;;;;;;;;;;14.60;100.00;95743.09;10504626;28;1914;-74
2023/06/06 22:17:25;;;;;;;;;;;;;;;14.55;100.00;95745.88;10504301;28;2382;-74
2023/06/06 22:22:27;;;;;;;;;;;;;;;14.49;100.00;95747.06;10508104;28;2457;-74
2023/06/06 22:27:30;;;;;;;;;;;;;;;14.37;100.00;95749.41;10503193;28;2071;-71
2023/06/06 22:32:32;;;;;;;;;;;;;;;14.29;100.00;95758.22;10505805;28;1976;-73
2023/06/06 22:37:35;;;;;;;;;;;;;;;14.23;100.00;95757.50;10504139;28;1899;-73
2023/06/06 22:42:37;;;;;;;;;;;;;;;14.16;100.00;95753.59;10508523;28;1911;-73
2023/06/06 22:47:39;;;;;;;;;;;;;;;14.14;100.00;95753.09;10504755;28;1860;-74
2023/06/06 22:52:42;;;;;;;;;;;;;;;14.09;100.00;95753.97;10512537;28;1923;-74
2023/06/06 22:57:45;;;;;;;;;;;;;;;13.96;100.00;95744.72;10506025;28;1915;-73
2023/06/06 23:02:47;;;;;;;;;;;;;;;13.91;100.00;95744.00;10515305;28;1972;-73
2023/06/06 23:07:50;;;;;;;;;;;;;;;13.85;100.00;95751.38;10502327;28;1911;-74
2023/06/06 23:12:53;;;;;;;;;;;;;;;13.82;100.00;95741.19;10498806;28;2362;-73
2023/06/06 23:17:55;;;;;;;;;;;;;;;13.75;100.00;95751.56;10505902;28;1884;-72
2023/06/06 23:22:58;;;;;;;;;;;;;;;13.69;100.00;95739.22;10505215;28;1956;-73
2023/06/06 23:28:01;;;;;;;;;;;;;;;13.61;100.00;95737.16;10506008;28;1935;-73
2023/06/06 23:33:04;;;;;;;;;;;;;;;13.59;100.00;95745.56;10504172;28;1914;-72
2023/06/06 23:38:07;;;;;;;;;;;;;;;13.48;100.00;95734.13;10502578;28;1887;-72
2023/06/06 23:43:09;;;;;;;;;;;;;;;13.40;100.00;95737.47;10503595;28;4475;-73
2023/06/06 23:48:12;;;;;;;;;;;;;;;13.33;100.00;95742.44;10503456;28;1847;-72
2023/06/06 23:53:15;;;;;;;;;;;;;;;13.34;100.00;95744.03;10508684;28;1994;-72
2023/06/06 23:58:18;;;;;;;;;;;;;;;13.25;100.00;95740.41;10502101;28;1863;-73
